KPMD

Palmdale Usaf Plant 42 Airport

Palmdale, California, USA
KPMD 141740Z 1418/1518 VRB04KT P6SM BKN200
Issued Valid From Valid To
Dec-14 @ 17:40 UTC
(5 hours ago)
Dec-14 @ 18:00 UTC
(5 hours ago)
Dec-15 @ 18:00 UTC
(in 19 hours)
Dec-14 @ 18:00 to Dec-15 @ 18:00
KPMD 141740Z 1418/1518 VRB04KT P6SM BKN200
Wind Visibility Clouds
Variable at 4 knots Greater than 6 miles
  • Broken at 20,000' AGL
KPMD 141740Z 1418/1518 VRB04KT P6SM BKN200
Issued Dec-14 @ 17:40 UTC
(5 hours ago)
Valid From Dec-14 @ 18:00 UTC
(5 hours ago)
Valid To Dec-15 @ 18:00 UTC
(in 19 hours)
Dec-14 @ 18:00 - Dec-15 @ 18:00
Wind Visibility
Variable at 4 knots Greater than 6 miles
Clouds
  • Broken at 20,000' AGL